sensor_id;sensor_type;location;lat;lon;timestamp;temperature;humidity
52743;DHT22;55583;53.012;6.556;2022-11-02T00:00:46;11.60;99.90
52743;DHT22;55583;53.012;6.556;2022-11-02T00:03:12;11.60;99.90
52743;DHT22;55583;53.012;6.556;2022-11-02T00:05:38;12.00;99.90
52743;DHT22;55583;53.012;6.556;2022-11-02T00:08:03;12.20;99.90
52743;DHT22;55583;53.012;6.556;2022-11-02T00:10:29;11.80;99.90
52743;DHT22;55583;53.012;6.556;2022-11-02T00:12:55;11.40;99.90
52743;DHT22;55583;53.012;6.556;2022-11-02T00:15:23;11.40;99.90
52743;DHT22;55583;53.012;6.556;2022-11-02T00:17:54;11.30;99.90
52743;DHT22;55583;53.012;6.556;2022-11-02T00:20:21;11.30;99.90
52743;DHT22;55583;53.012;6.556;2022-11-02T00:22:49;11.60;99.90
52743;DHT22;55583;53.012;6.556;2022-11-02T00:25:17;11.30;99.90
52743;DHT22;55583;53.012;6.556;2022-11-02T00:27:45;11.30;99.90
52743;DHT22;55583;53.012;6.556;2022-11-02T00:30:10;11.30;99.90
52743;DHT22;55583;53.012;6.556;2022-11-02T00:32:36;11.30;99.90
52743;DHT22;55583;53.012;6.556;2022-11-02T00:35:02;11.30;99.90
52743;DHT22;55583;53.012;6.556;2022-11-02T00:37:27;11.30;99.90
52743;DHT22;55583;53.012;6.556;2022-11-02T00:39:53;11.20;99.90
52743;DHT22;55583;53.012;6.556;2022-11-02T00:42:18;11.10;99.90
52743;DHT22;55583;53.012;6.556;2022-11-02T00:44:44;11.20;99.90
52743;DHT22;55583;53.012;6.556;2022-11-02T00:47:12;11.10;99.90
52743;DHT22;55583;53.012;6.556;2022-11-02T00:49:38;10.80;99.90
52743;DHT22;55583;53.012;6.556;2022-11-02T00:52:04;10.70;99.90
52743;DHT22;55583;53.012;6.556;2022-11-02T00:54:30;10.70;99.90
52743;DHT22;55583;53.012;6.556;2022-11-02T00:56:56;10.60;99.90
52743;DHT22;55583;53.012;6.556;2022-11-02T00:59:21;10.50;99.90
52743;DHT22;55583;53.012;6.556;2022-11-02T01:01:47;10.50;99.90
52743;DHT22;55583;53.012;6.556;2022-11-02T01:04:14;10.50;99.90
52743;DHT22;55583;53.012;6.556;2022-11-02T01:06:41;10.50;99.90
52743;DHT22;55583;53.012;6.556;2022-11-02T01:09:07;10.40;99.90
52743;DHT22;55583;53.012;6.556;2022-11-02T01:11:34;11.10;99.90
52743;DHT22;55583;53.012;6.556;2022-11-02T01:13:59;10.40;99.90
52743;DHT22;55583;53.012;6.556;2022-11-02T01:16:25;10.30;99.90
52743;DHT22;55583;53.012;6.556;2022-11-02T01:18:53;10.40;99.90
52743;DHT22;55583;53.012;6.556;2022-11-02T01:21:19;10.40;99.90
52743;DHT22;55583;53.012;6.556;2022-11-02T01:23:48;10.40;99.90
52743;DHT22;55583;53.012;6.556;2022-11-02T01:26:14;10.40;99.90
52743;DHT22;55583;53.012;6.556;2022-11-02T01:28:40;10.40;99.90
52743;DHT22;55583;53.012;6.556;2022-11-02T01:31:07;10.90;99.90
52743;DHT22;55583;53.012;6.556;2022-11-02T01:33:33;10.30;99.90
52743;DHT22;55583;53.012;6.556;2022-11-02T01:36:02;10.30;99.90
52743;DHT22;55583;53.012;6.556;2022-11-02T01:38:28;10.30;99.90
52743;DHT22;55583;53.012;6.556;2022-11-02T01:40:54;10.20;99.90
52743;DHT22;55583;53.012;6.556;2022-11-02T01:43:28;10.60;99.90
52743;DHT22;55583;53.012;6.556;2022-11-02T01:49:02;10.10;99.90
52743;DHT22;55583;53.012;6.556;2022-11-02T01:51:54;10.10;99.90
52743;DHT22;55583;53.012;6.556;2022-11-02T01:54:26;10.90;99.90
52743;DHT22;55583;53.012;6.556;2022-11-02T01:56:57;10.00;99.90
52743;DHT22;55583;53.012;6.556;2022-11-02T01:59:32;10.10;99.90
52743;DHT22;55583;53.012;6.556;2022-11-02T02:01:59;10.10;99.90
52743;DHT22;55583;53.012;6.556;2022-11-02T02:04:26;10.20;99.90
52743;DHT22;55583;53.012;6.556;2022-11-02T02:06:55;10.50;99.90
52743;DHT22;55583;53.012;6.556;2022-11-02T02:09:22;10.30;99.90
52743;DHT22;55583;53.012;6.556;2022-11-02T02:11:48;10.40;99.90
52743;DHT22;55583;53.012;6.556;2022-11-02T02:14:18;10.50;99.90
52743;DHT22;55583;53.012;6.556;2022-11-02T02:19:39;10.50;99.90
52743;DHT22;55583;53.012;6.556;2022-11-02T02:24:57;10.60;99.90
52743;DHT22;55583;53.012;6.556;2022-11-02T02:30:15;10.70;99.90
52743;DHT22;55583;53.012;6.556;2022-11-02T02:32:54;10.70;99.90
52743;DHT22;55583;53.012;6.556;2022-11-02T02:38:05;10.70;99.90
52743;DHT22;55583;53.012;6.556;2022-11-02T02:40:35;10.80;99.90
52743;DHT22;55583;53.012;6.556;2022-11-02T02:43:20;11.20;99.90
52743;DHT22;55583;53.012;6.556;2022-11-02T02:45:54;10.70;99.90
52743;DHT22;55583;53.012;6.556;2022-11-02T02:48:24;10.70;99.90
52743;DHT22;55583;53.012;6.556;2022-11-02T02:50:53;11.30;99.90
52743;DHT22;55583;53.012;6.556;2022-11-02T02:53:23;10.50;99.90
52743;DHT22;55583;53.012;6.556;2022-11-02T02:55:52;10.50;99.90
52743;DHT22;55583;53.012;6.556;2022-11-02T02:58:21;10.50;99.90
52743;DHT22;55583;53.012;6.556;2022-11-02T03:00:48;10.40;99.90
52743;DHT22;55583;53.012;6.556;2022-11-02T03:03:19;10.40;99.90
52743;DHT22;55583;53.012;6.556;2022-11-02T03:08:36;10.20;99.90
52743;DHT22;55583;53.012;6.556;2022-11-02T03:11:16;10.10;99.90
52743;DHT22;55583;53.012;6.556;2022-11-02T03:19:22;9.80;99.90
52743;DHT22;55583;53.012;6.556;2022-11-02T03:21:58;10.10;99.90
52743;DHT22;55583;53.012;6.556;2022-11-02T03:27:37;9.60;99.90
52743;DHT22;55583;53.012;6.556;2022-11-02T03:30:15;9.60;99.90
52743;DHT22;55583;53.012;6.556;2022-11-02T03:35:55;9.60;99.90
52743;DHT22;55583;53.012;6.556;2022-11-02T03:38:34;9.60;99.90
52743;DHT22;55583;53.012;6.556;2022-11-02T03:41:03;9.60;99.90
52743;DHT22;55583;53.012;6.556;2022-11-02T03:43:34;9.60;99.90
52743;DHT22;55583;53.012;6.556;2022-11-02T03:46:02;9.60;99.90
52743;DHT22;55583;53.012;6.556;2022-11-02T03:48:35;9.60;99.90
52743;DHT22;55583;53.012;6.556;2022-11-02T03:51:04;9.60;99.90
52743;DHT22;55583;53.012;6.556;2022-11-02T03:53:54;9.50;99.90
52743;DHT22;55583;53.012;6.556;2022-11-02T03:56:28;9.50;99.90
52743;DHT22;55583;53.012;6.556;2022-11-02T03:58:56;9.50;99.90
52743;DHT22;55583;53.012;6.556;2022-11-02T04:01:22;9.50;99.90
52743;DHT22;55583;53.012;6.556;2022-11-02T04:03:48;9.60;99.90
52743;DHT22;55583;53.012;6.556;2022-11-02T04:06:14;9.60;99.90
52743;DHT22;55583;53.012;6.556;2022-11-02T04:08:45;9.60;99.90
52743;DHT22;55583;53.012;6.556;2022-11-02T04:11:11;10.20;99.90
52743;DHT22;55583;53.012;6.556;2022-11-02T04:13:56;9.60;99.90
52743;DHT22;55583;53.012;6.556;2022-11-02T04:16:40;10.00;99.90
52743;DHT22;55583;53.012;6.556;2022-11-02T04:19:07;9.60;99.90
52743;DHT22;55583;53.012;6.556;2022-11-02T04:21:51;9.60;99.90
52743;DHT22;55583;53.012;6.556;2022-11-02T04:24:36;9.50;99.90
52743;DHT22;55583;53.012;6.556;2022-11-02T04:27:20;9.50;99.90
52743;DHT22;55583;53.012;6.556;2022-11-02T04:29:45;9.50;99.90
52743;DHT22;55583;53.012;6.556;2022-11-02T04:32:11;9.50;99.90
52743;DHT22;55583;53.012;6.556;2022-11-02T04:34:36;10.40;99.90
52743;DHT22;55583;53.012;6.556;2022-11-02T04:37:02;10.10;99.90
52743;DHT22;55583;53.012;6.556;2022-11-02T04:39:48;9.70;99.90
52743;DHT22;55583;53.012;6.556;2022-11-02T04:42:13;10.40;99.90
52743;DHT22;55583;53.012;6.556;2022-11-02T04:44:39;10.00;99.90
52743;DHT22;55583;53.012;6.556;2022-11-02T04:47:04;10.80;99.90
52743;DHT22;55583;53.012;6.556;2022-11-02T04:49:30;9.80;99.90
52743;DHT22;55583;53.012;6.556;2022-11-02T04:51:55;10.40;99.90
52743;DHT22;55583;53.012;6.556;2022-11-02T04:54:21;9.80;99.90
52743;DHT22;55583;53.012;6.556;2022-11-02T04:56:46;9.80;99.90
52743;DHT22;55583;53.012;6.556;2022-11-02T04:59:12;9.80;99.90
52743;DHT22;55583;53.012;6.556;2022-11-02T05:01:38;9.80;99.90
52743;DHT22;55583;53.012;6.556;2022-11-02T05:04:03;9.80;99.90
52743;DHT22;55583;53.012;6.556;2022-11-02T05:06:29;9.90;99.90
52743;DHT22;55583;53.012;6.556;2022-11-02T05:08:55;9.80;99.90
52743;DHT22;55583;53.012;6.556;2022-11-02T05:11:20;9.80;99.90
52743;DHT22;55583;53.012;6.556;2022-11-02T05:13:46;9.80;99.90
52743;DHT22;55583;53.012;6.556;2022-11-02T05:16:14;9.80;99.90
52743;DHT22;55583;53.012;6.556;2022-11-02T05:18:40;9.90;99.90
52743;DHT22;55583;53.012;6.556;2022-11-02T05:21:06;10.30;99.90
52743;DHT22;55583;53.012;6.556;2022-11-02T05:23:32;9.90;99.90
52743;DHT22;55583;53.012;6.556;2022-11-02T05:26:02;10.30;99.90
52743;DHT22;55583;53.012;6.556;2022-11-02T05:28:30;10.10;99.90
52743;DHT22;55583;53.012;6.556;2022-11-02T05:30:57;9.90;99.90
52743;DHT22;55583;53.012;6.556;2022-11-02T05:33:23;9.90;99.90
52743;DHT22;55583;53.012;6.556;2022-11-02T05:35:49;9.90;99.90
52743;DHT22;55583;53.012;6.556;2022-11-02T05:38:15;10.70;99.90
52743;DHT22;55583;53.012;6.556;2022-11-02T05:40:43;9.90;99.90
52743;DHT22;55583;53.012;6.556;2022-11-02T05:43:09;9.90;99.90
52743;DHT22;55583;53.012;6.556;2022-11-02T05:45:35;9.80;99.90
52743;DHT22;55583;53.012;6.556;2022-11-02T05:48:02;9.80;99.90
52743;DHT22;55583;53.012;6.556;2022-11-02T05:50:29;10.80;99.90
52743;DHT22;55583;53.012;6.556;2022-11-02T05:52:54;9.80;99.90
52743;DHT22;55583;53.012;6.556;2022-11-02T05:55:20;11.20;99.90
52743;DHT22;55583;53.012;6.556;2022-11-02T05:57:53;10.90;99.90
52743;DHT22;55583;53.012;6.556;2022-11-02T06:00:20;9.70;99.90
52743;DHT22;55583;53.012;6.556;2022-11-02T06:02:47;9.70;99.90
52743;DHT22;55583;53.012;6.556;2022-11-02T06:05:13;9.70;99.90
52743;DHT22;55583;53.012;6.556;2022-11-02T06:07:39;9.70;99.90
52743;DHT22;55583;53.012;6.556;2022-11-02T06:10:05;9.60;99.90
52743;DHT22;55583;53.012;6.556;2022-11-02T06:12:31;9.60;99.90
52743;DHT22;55583;53.012;6.556;2022-11-02T06:14:57;9.60;99.90
52743;DHT22;55583;53.012;6.556;2022-11-02T06:17:23;9.60;99.90
52743;DHT22;55583;53.012;6.556;2022-11-02T06:19:48;10.50;99.90
52743;DHT22;55583;53.012;6.556;2022-11-02T06:22:14;9.50;99.90
52743;DHT22;55583;53.012;6.556;2022-11-02T06:24:39;9.50;99.90
52743;DHT22;55583;53.012;6.556;2022-11-02T06:27:05;9.50;99.90
52743;DHT22;55583;53.012;6.556;2022-11-02T06:29:30;9.60;99.90
52743;DHT22;55583;53.012;6.556;2022-11-02T06:31:56;9.60;99.90
52743;DHT22;55583;53.012;6.556;2022-11-02T06:34:24;9.70;99.90
52743;DHT22;55583;53.012;6.556;2022-11-02T06:36:50;9.70;99.90
52743;DHT22;55583;53.012;6.556;2022-11-02T06:39:15;9.80;99.90
52743;DHT22;55583;53.012;6.556;2022-11-02T06:41:41;9.80;99.90
52743;DHT22;55583;53.012;6.556;2022-11-02T06:44:07;9.80;99.90
52743;DHT22;55583;53.012;6.556;2022-11-02T06:46:32;9.80;99.90
52743;DHT22;55583;53.012;6.556;2022-11-02T06:49:01;9.90;99.90
52743;DHT22;55583;53.012;6.556;2022-11-02T06:51:26;10.70;99.90
52743;DHT22;55583;53.012;6.556;2022-11-02T06:53:52;10.40;99.90
52743;DHT22;55583;53.012;6.556;2022-11-02T06:56:17;9.90;99.90
52743;DHT22;55583;53.012;6.556;2022-11-02T06:58:46;9.90;99.90
52743;DHT22;55583;53.012;6.556;2022-11-02T07:01:11;10.10;99.90
52743;DHT22;55583;53.012;6.556;2022-11-02T07:03:38;9.90;99.90
52743;DHT22;55583;53.012;6.556;2022-11-02T07:06:04;9.90;99.90
52743;DHT22;55583;53.012;6.556;2022-11-02T07:08:29;10.00;99.90
52743;DHT22;55583;53.012;6.556;2022-11-02T07:10:56;10.00;99.90
52743;DHT22;55583;53.012;6.556;2022-11-02T07:13:24;10.50;99.90
52743;DHT22;55583;53.012;6.556;2022-11-02T07:15:52;10.20;99.90
52743;DHT22;55583;53.012;6.556;2022-11-02T07:18:18;10.20;99.90
52743;DHT22;55583;53.012;6.556;2022-11-02T07:20:44;10.30;99.90
52743;DHT22;55583;53.012;6.556;2022-11-02T07:23:09;10.30;99.90
52743;DHT22;55583;53.012;6.556;2022-11-02T07:25:35;10.30;99.90
52743;DHT22;55583;53.012;6.556;2022-11-02T07:28:02;10.30;99.90
52743;DHT22;55583;53.012;6.556;2022-11-02T07:30:29;10.30;99.90
52743;DHT22;55583;53.012;6.556;2022-11-02T07:32:55;10.30;99.90
52743;DHT22;55583;53.012;6.556;2022-11-02T07:35:21;10.30;99.90
52743;DHT22;55583;53.012;6.556;2022-11-02T07:38:00;10.30;99.90
52743;DHT22;55583;53.012;6.556;2022-11-02T07:40:27;10.20;99.90
52743;DHT22;55583;53.012;6.556;2022-11-02T07:42:53;10.20;99.90
52743;DHT22;55583;53.012;6.556;2022-11-02T07:45:20;10.40;99.90
52743;DHT22;55583;53.012;6.556;2022-11-02T07:47:46;10.20;99.90
52743;DHT22;55583;53.012;6.556;2022-11-02T07:50:13;10.20;99.90
52743;DHT22;55583;53.012;6.556;2022-11-02T07:52:47;11.00;99.90
52743;DHT22;55583;53.012;6.556;2022-11-02T07:55:14;10.30;99.90
52743;DHT22;55583;53.012;6.556;2022-11-02T07:57:40;10.30;99.90
52743;DHT22;55583;53.012;6.556;2022-11-02T08:00:09;10.30;99.90
52743;DHT22;55583;53.012;6.556;2022-11-02T08:02:34;10.30;99.90
52743;DHT22;55583;53.012;6.556;2022-11-02T08:05:00;10.20;99.90
52743;DHT22;55583;53.012;6.556;2022-11-02T08:07:26;10.20;99.90
52743;DHT22;55583;53.012;6.556;2022-11-02T08:09:51;10.20;99.90
52743;DHT22;55583;53.012;6.556;2022-11-02T08:12:17;10.30;99.90
52743;DHT22;55583;53.012;6.556;2022-11-02T08:14:43;10.40;99.90
52743;DHT22;55583;53.012;6.556;2022-11-02T08:17:08;11.00;99.90
52743;DHT22;55583;53.012;6.556;2022-11-02T08:19:34;11.20;99.90
52743;DHT22;55583;53.012;6.556;2022-11-02T08:21:59;10.60;99.90
52743;DHT22;55583;53.012;6.556;2022-11-02T08:24:25;10.70;99.90
52743;DHT22;55583;53.012;6.556;2022-11-02T08:26:51;10.70;99.90
52743;DHT22;55583;53.012;6.556;2022-11-02T08:29:16;10.70;99.90
52743;DHT22;55583;53.012;6.556;2022-11-02T08:31:42;11.50;99.90
52743;DHT22;55583;53.012;6.556;2022-11-02T08:34:08;11.50;99.90
52743;DHT22;55583;53.012;6.556;2022-11-02T08:36:36;10.80;99.90
52743;DHT22;55583;53.012;6.556;2022-11-02T08:39:02;10.70;99.90
52743;DHT22;55583;53.012;6.556;2022-11-02T08:41:27;10.60;99.90
52743;DHT22;55583;53.012;6.556;2022-11-02T08:43:53;10.60;99.90
52743;DHT22;55583;53.012;6.556;2022-11-02T08:46:18;10.70;99.90
52743;DHT22;55583;53.012;6.556;2022-11-02T08:48:47;10.70;99.90
52743;DHT22;55583;53.012;6.556;2022-11-02T08:51:13;10.80;99.90
52743;DHT22;55583;53.012;6.556;2022-11-02T08:53:38;11.00;99.90
52743;DHT22;55583;53.012;6.556;2022-11-02T08:56:04;10.70;99.90
52743;DHT22;55583;53.012;6.556;2022-11-02T08:58:30;10.90;99.90
52743;DHT22;55583;53.012;6.556;2022-11-02T09:00:55;11.10;99.90
52743;DHT22;55583;53.012;6.556;2022-11-02T09:03:21;11.10;99.90
52743;DHT22;55583;53.012;6.556;2022-11-02T09:05:49;12.00;99.90
52743;DHT22;55583;53.012;6.556;2022-11-02T09:08:19;11.80;99.90
52743;DHT22;55583;53.012;6.556;2022-11-02T09:10:48;12.00;99.90
52743;DHT22;55583;53.012;6.556;2022-11-02T09:13:15;11.60;99.90
52743;DHT22;55583;53.012;6.556;2022-11-02T09:15:50;12.00;99.90
52743;DHT22;55583;53.012;6.556;2022-11-02T09:18:17;11.90;99.90
52743;DHT22;55583;53.012;6.556;2022-11-02T09:20:43;12.00;99.90
52743;DHT22;55583;53.012;6.556;2022-11-02T09:23:08;12.20;99.90
52743;DHT22;55583;53.012;6.556;2022-11-02T09:25:34;12.40;99.90
52743;DHT22;55583;53.012;6.556;2022-11-02T09:28:02;13.10;99.90
52743;DHT22;55583;53.012;6.556;2022-11-02T09:30:28;12.80;99.90
52743;DHT22;55583;53.012;6.556;2022-11-02T09:32:58;13.40;99.90
52743;DHT22;55583;53.012;6.556;2022-11-02T09:35:26;12.70;99.90
52743;DHT22;55583;53.012;6.556;2022-11-02T09:37:52;12.80;99.90
52743;DHT22;55583;53.012;6.556;2022-11-02T09:40:23;12.60;99.90
52743;DHT22;55583;53.012;6.556;2022-11-02T09:42:56;12.40;99.90
52743;DHT22;55583;53.012;6.556;2022-11-02T09:45:23;13.00;99.90
52743;DHT22;55583;53.012;6.556;2022-11-02T09:48:09;12.10;99.90
52743;DHT22;55583;53.012;6.556;2022-11-02T09:50:45;12.00;99.90
52743;DHT22;55583;53.012;6.556;2022-11-02T09:53:17;12.40;99.90
52743;DHT22;55583;53.012;6.556;2022-11-02T09:55:53;12.10;99.90
52743;DHT22;55583;53.012;6.556;2022-11-02T09:58:27;13.20;99.90
52743;DHT22;55583;53.012;6.556;2022-11-02T10:00:58;13.40;99.90
52743;DHT22;55583;53.012;6.556;2022-11-02T10:06:23;14.70;99.90
52743;DHT22;55583;53.012;6.556;2022-11-02T10:09:19;15.70;99.90
52743;DHT22;55583;53.012;6.556;2022-11-02T10:12:01;16.50;99.90
52743;DHT22;55583;53.012;6.556;2022-11-02T10:14:36;17.10;99.90
52743;DHT22;55583;53.012;6.556;2022-11-02T10:17:16;17.30;99.90
52743;DHT22;55583;53.012;6.556;2022-11-02T10:19:48;17.40;99.90
52743;DHT22;55583;53.012;6.556;2022-11-02T10:22:16;17.40;99.90
52743;DHT22;55583;53.012;6.556;2022-11-02T10:24:44;17.30;99.90
52743;DHT22;55583;53.012;6.556;2022-11-02T10:27:28;17.30;99.90
52743;DHT22;55583;53.012;6.556;2022-11-02T10:30:06;17.30;98.50
52743;DHT22;55583;53.012;6.556;2022-11-02T10:32:34;17.60;99.90
52743;DHT22;55583;53.012;6.556;2022-11-02T10:35:11;18.00;99.20
52743;DHT22;55583;53.012;6.556;2022-11-02T10:38:23;17.80;99.90
52743;DHT22;55583;53.012;6.556;2022-11-02T10:41:00;17.20;92.10
52743;DHT22;55583;53.012;6.556;2022-11-02T10:46:42;16.20;92.10
52743;DHT22;55583;53.012;6.556;2022-11-02T10:49:27;16.10;93.60
52743;DHT22;55583;53.012;6.556;2022-11-02T10:51:57;15.80;99.30
52743;DHT22;55583;53.012;6.556;2022-11-02T10:54:25;15.50;99.90
52743;DHT22;55583;53.012;6.556;2022-11-02T10:56:50;15.30;99.90
52743;DHT22;55583;53.012;6.556;2022-11-02T10:59:18;15.10;99.90
52743;DHT22;55583;53.012;6.556;2022-11-02T11:02:02;15.70;99.90
52743;DHT22;55583;53.012;6.556;2022-11-02T11:04:32;15.20;99.90
52743;DHT22;55583;53.012;6.556;2022-11-02T11:07:17;14.80;96.90
52743;DHT22;55583;53.012;6.556;2022-11-02T11:09:50;14.70;95.30
52743;DHT22;55583;53.012;6.556;2022-11-02T11:12:19;14.80;93.00
52743;DHT22;55583;53.012;6.556;2022-11-02T11:14:55;15.20;86.10
52743;DHT22;55583;53.012;6.556;2022-11-02T11:17:32;15.60;96.90
52743;DHT22;55583;53.012;6.556;2022-11-02T11:19:58;16.00;95.20
52743;DHT22;55583;53.012;6.556;2022-11-02T11:27:55;18.30;78.00
52743;DHT22;55583;53.012;6.556;2022-11-02T11:30:28;18.40;82.00
52743;DHT22;55583;53.012;6.556;2022-11-02T11:32:55;18.70;84.60
52743;DHT22;55583;53.012;6.556;2022-11-02T11:35:22;19.20;84.40
52743;DHT22;55583;53.012;6.556;2022-11-02T11:37:51;20.00;79.30
52743;DHT22;55583;53.012;6.556;2022-11-02T11:40:19;20.50;78.40
52743;DHT22;55583;53.012;6.556;2022-11-02T11:42:51;20.80;74.00
52743;DHT22;55583;53.012;6.556;2022-11-02T11:45:28;21.20;69.00
52743;DHT22;55583;53.012;6.556;2022-11-02T11:48:06;21.40;70.30
52743;DHT22;55583;53.012;6.556;2022-11-02T11:50:34;21.70;70.00
52743;DHT22;55583;53.012;6.556;2022-11-02T11:53:15;21.80;69.80
52743;DHT22;55583;53.012;6.556;2022-11-02T11:55:50;21.90;61.20
52743;DHT22;55583;53.012;6.556;2022-11-02T11:58:24;22.10;62.80
52743;DHT22;55583;53.012;6.556;2022-11-02T12:04:00;21.50;60.60
52743;DHT22;55583;53.012;6.556;2022-11-02T12:31:40;14.90;74.50
52743;DHT22;55583;53.012;6.556;2022-11-02T12:42:20;14.60;78.90
52743;DHT22;55583;53.012;6.556;2022-11-02T12:50:36;14.70;79.70
52743;DHT22;55583;53.012;6.556;2022-11-02T12:53:25;14.60;78.90
52743;DHT22;55583;53.012;6.556;2022-11-02T12:55:58;14.60;79.40
52743;DHT22;55583;53.012;6.556;2022-11-02T12:58:29;14.80;81.60
52743;DHT22;55583;53.012;6.556;2022-11-02T13:01:16;14.80;80.20
52743;DHT22;55583;53.012;6.556;2022-11-02T13:06:33;14.90;81.50
52743;DHT22;55583;53.012;6.556;2022-11-02T13:09:06;14.90;81.60
52743;DHT22;55583;53.012;6.556;2022-11-02T13:11:45;14.90;81.70
52743;DHT22;55583;53.012;6.556;2022-11-02T13:14:15;14.80;81.60
52743;DHT22;55583;53.012;6.556;2022-11-02T13:16:45;14.80;81.60
52743;DHT22;55583;53.012;6.556;2022-11-02T13:19:16;14.90;81.60
52743;DHT22;55583;53.012;6.556;2022-11-02T13:21:48;15.00;80.80
52743;DHT22;55583;53.012;6.556;2022-11-02T13:24:18;14.90;79.70
52743;DHT22;55583;53.012;6.556;2022-11-02T13:26:48;15.40;80.70
52743;DHT22;55583;53.012;6.556;2022-11-02T13:32:05;15.40;82.40
52743;DHT22;55583;53.012;6.556;2022-11-02T13:34:42;14.80;83.40
52743;DHT22;55583;53.012;6.556;2022-11-02T13:37:36;14.70;82.60
52743;DHT22;55583;53.012;6.556;2022-11-02T13:40:29;15.10;82.20
52743;DHT22;55583;53.012;6.556;2022-11-02T13:43:15;14.60;83.00
52743;DHT22;55583;53.012;6.556;2022-11-02T13:45:57;15.00;79.40
52743;DHT22;55583;53.012;6.556;2022-11-02T13:51:47;14.40;79.70
52743;DHT22;55583;53.012;6.556;2022-11-02T13:54:45;15.00;81.70
52743;DHT22;55583;53.012;6.556;2022-11-02T13:57:38;14.30;81.50
52743;DHT22;55583;53.012;6.556;2022-11-02T14:03:00;14.40;84.70
52743;DHT22;55583;53.012;6.556;2022-11-02T14:05:33;14.10;86.00
52743;DHT22;55583;53.012;6.556;2022-11-02T14:08:05;14.10;85.80
52743;DHT22;55583;53.012;6.556;2022-11-02T14:10:37;14.10;87.00
52743;DHT22;55583;53.012;6.556;2022-11-02T14:13:13;14.10;88.30
52743;DHT22;55583;53.012;6.556;2022-11-02T14:15:40;14.20;89.70
52743;DHT22;55583;53.012;6.556;2022-11-02T14:18:11;14.80;90.40
52743;DHT22;55583;53.012;6.556;2022-11-02T14:20:43;15.10;91.00
52743;DHT22;55583;53.012;6.556;2022-11-02T14:39:37;14.10;95.60
52743;DHT22;55583;53.012;6.556;2022-11-02T14:42:31;13.90;96.40
52743;DHT22;55583;53.012;6.556;2022-11-02T14:47:31;13.70;98.60
52743;DHT22;55583;53.012;6.556;2022-11-02T14:52:36;13.60;99.90
52743;DHT22;55583;53.012;6.556;2022-11-02T14:55:30;13.50;99.90
52743;DHT22;55583;53.012;6.556;2022-11-02T15:01:03;13.80;99.90
52743;DHT22;55583;53.012;6.556;2022-11-02T15:08:27;13.20;99.90
52743;DHT22;55583;53.012;6.556;2022-11-02T15:10:55;13.20;99.90
52743;DHT22;55583;53.012;6.556;2022-11-02T15:13:33;13.40;99.90
52743;DHT22;55583;53.012;6.556;2022-11-02T15:26:57;13.00;99.90
52743;DHT22;55583;53.012;6.556;2022-11-02T15:29:30;12.90;99.90
52743;DHT22;55583;53.012;6.556;2022-11-02T15:32:05;12.80;99.90
52743;DHT22;55583;53.012;6.556;2022-11-02T15:34:35;12.80;99.90
52743;DHT22;55583;53.012;6.556;2022-11-02T15:37:03;12.70;99.90
52743;DHT22;55583;53.012;6.556;2022-11-02T15:39:30;12.60;99.90
52743;DHT22;55583;53.012;6.556;2022-11-02T15:42:12;12.60;99.90
52743;DHT22;55583;53.012;6.556;2022-11-02T15:45:00;12.60;99.90
52743;DHT22;55583;53.012;6.556;2022-11-02T15:50:27;12.90;99.90
52743;DHT22;55583;53.012;6.556;2022-11-02T16:02:23;12.20;99.90
52743;DHT22;55583;53.012;6.556;2022-11-02T16:04:50;12.10;99.90
52743;DHT22;55583;53.012;6.556;2022-11-02T16:07:16;12.10;99.90
52743;DHT22;55583;53.012;6.556;2022-11-02T16:09:45;12.60;99.90
52743;DHT22;55583;53.012;6.556;2022-11-02T16:14:44;12.50;99.90
52743;DHT22;55583;53.012;6.556;2022-11-02T16:17:28;11.80;99.90
52743;DHT22;55583;53.012;6.556;2022-11-02T16:22:58;11.60;99.90
52743;DHT22;55583;53.012;6.556;2022-11-02T16:25:44;11.50;99.90
52743;DHT22;55583;53.012;6.556;2022-11-02T16:28:23;11.50;99.90
52743;DHT22;55583;53.012;6.556;2022-11-02T16:31:06;11.40;99.90
52743;DHT22;55583;53.012;6.556;2022-11-02T16:34:06;11.30;99.90
52743;DHT22;55583;53.012;6.556;2022-11-02T16:36:36;11.30;99.90
52743;DHT22;55583;53.012;6.556;2022-11-02T16:39:25;11.20;99.90
52743;DHT22;55583;53.012;6.556;2022-11-02T16:41:53;11.20;99.90
52743;DHT22;55583;53.012;6.556;2022-11-02T16:44:30;11.20;99.90
52743;DHT22;55583;53.012;6.556;2022-11-02T16:47:19;11.30;99.90
52743;DHT22;55583;53.012;6.556;2022-11-02T16:52:31;11.10;99.90
52743;DHT22;55583;53.012;6.556;2022-11-02T16:54:57;11.10;99.90
52743;DHT22;55583;53.012;6.556;2022-11-02T16:57:26;11.70;99.90
52743;DHT22;55583;53.012;6.556;2022-11-02T16:59:58;11.30;99.90
52743;DHT22;55583;53.012;6.556;2022-11-02T17:02:37;11.10;99.90
52743;DHT22;55583;53.012;6.556;2022-11-02T17:05:05;11.10;99.90
52743;DHT22;55583;53.012;6.556;2022-11-02T17:07:40;11.10;99.90
52743;DHT22;55583;53.012;6.556;2022-11-02T17:10:07;11.10;99.90
52743;DHT22;55583;53.012;6.556;2022-11-02T17:12:36;11.10;99.90
52743;DHT22;55583;53.012;6.556;2022-11-02T17:15:14;11.10;99.90
52743;DHT22;55583;53.012;6.556;2022-11-02T17:17:40;11.60;99.90
52743;DHT22;55583;53.012;6.556;2022-11-02T17:23:01;11.00;99.90
52743;DHT22;55583;53.012;6.556;2022-11-02T17:25:32;11.00;99.90
52743;DHT22;55583;53.012;6.556;2022-11-02T17:28:04;11.00;99.90
52743;DHT22;55583;53.012;6.556;2022-11-02T17:30:49;11.00;99.90
52743;DHT22;55583;53.012;6.556;2022-11-02T17:33:25;11.00;99.90
52743;DHT22;55583;53.012;6.556;2022-11-02T17:35:53;11.00;99.90
52743;DHT22;55583;53.012;6.556;2022-11-02T17:38:23;11.00;99.90
52743;DHT22;55583;53.012;6.556;2022-11-02T17:40:50;10.80;99.90
52743;DHT22;55583;53.012;6.556;2022-11-02T17:43:20;10.90;99.90
52743;DHT22;55583;53.012;6.556;2022-11-02T17:45:53;10.80;99.90
52743;DHT22;55583;53.012;6.556;2022-11-02T17:48:18;11.50;99.90
52743;DHT22;55583;53.012;6.556;2022-11-02T17:50:44;10.80;99.90
52743;DHT22;55583;53.012;6.556;2022-11-02T17:53:11;10.80;99.90
52743;DHT22;55583;53.012;6.556;2022-11-02T17:55:38;10.70;99.90
52743;DHT22;55583;53.012;6.556;2022-11-02T17:58:05;10.70;99.90
52743;DHT22;55583;53.012;6.556;2022-11-02T18:00:33;11.40;99.90
52743;DHT22;55583;53.012;6.556;2022-11-02T18:02:59;10.80;99.90
52743;DHT22;55583;53.012;6.556;2022-11-02T18:05:33;11.00;99.90
52743;DHT22;55583;53.012;6.556;2022-11-02T18:07:59;10.60;99.90
52743;DHT22;55583;53.012;6.556;2022-11-02T18:10:27;10.60;99.90
52743;DHT22;55583;53.012;6.556;2022-11-02T18:12:55;10.80;99.90
52743;DHT22;55583;53.012;6.556;2022-11-02T18:15:26;10.60;99.90
52743;DHT22;55583;53.012;6.556;2022-11-02T18:17:52;10.60;99.90
52743;DHT22;55583;53.012;6.556;2022-11-02T18:20:19;11.10;99.90
52743;DHT22;55583;53.012;6.556;2022-11-02T18:22:48;10.70;99.90
52743;DHT22;55583;53.012;6.556;2022-11-02T18:25:16;10.50;99.90
52743;DHT22;55583;53.012;6.556;2022-11-02T18:27:43;10.50;99.90
52743;DHT22;55583;53.012;6.556;2022-11-02T18:30:10;10.50;99.90